Time;durP1;ratioP1;P1;durP2;ratioP2;P2;SDS_P1;SDS_P2;PMS_P1;PMS_P2;Temp;Humidity;BMP_temperature;BMP_pressure;BME280_temperature;BME280_humidity;BME280_pressure;Samples;Min_cycle;Max_cycle;Signal;HPM_P1;HPM_P2
2022/04/12 00:00:13;;;;;;;;;;;;;;;;;;5094911;28;19912;-70
2022/04/12 00:02:39;;;;;;;;;;;;;;;;;;5094405;28;19909;-70
2022/04/12 00:05:05;;;;;;;;;;;;;;;;;;5094785;28;19922;-70
2022/04/12 00:07:31;;;;;;;;;;;;;;;;;;5094238;28;20319;-70
2022/04/12 00:09:57;;;;;;;;;;;;;;;;;;5094272;28;19908;-70
2022/04/12 00:12:23;;;;;;;;;;;;;;;;;;5094608;28;20291;-70
2022/04/12 00:14:50;;;;;;;;;;;;;;;;;;5094452;28;19909;-70
2022/04/12 00:20:02;;;;;;;;;;;;;;;;;;5094591;28;19954;-70
2022/04/12 00:22:28;;;;;;;;;;;;;;;;;;5094070;28;19952;-70
2022/04/12 00:24:54;;;;;;;;;;;;;;;;;;5094450;28;19908;-70
2022/04/12 00:27:20;;;;;;;;;;;;;;;;;;5094353;28;19912;-70
2022/04/12 00:29:46;;;;;;;;;;;;;;;;;;5093925;28;19912;-70
2022/04/12 00:32:12;;;;;;;;;;;;;;;;;;5094796;28;19908;-69
2022/04/12 00:34:38;;;;;;;;;;;;;;;;;;5094326;28;19931;-69
2022/04/12 00:37:04;;;;;;;;;;;;;;;;;;5093903;28;19914;-71
2022/04/12 00:39:30;;;;;;;;;;;;;;;;;;5094158;28;19916;-71
2022/04/12 00:41:57;;;;;;;;;;;;;;;;;;5094393;28;20007;-70
2022/04/12 00:44:23;;;;;;;;;;;;;;;;;;5093834;28;19947;-69
2022/04/12 00:46:49;;;;;;;;;;;;;;;;;;5094116;28;19915;-69
2022/04/12 00:49:15;;;;;;;;;;;;;;;;;;5094084;28;19915;-69
2022/04/12 00:51:41;;;;;;;;;;;;;;;;;;5093694;28;19908;-69
2022/04/12 00:54:07;;;;;;;;;;;;;;;;;;5094051;28;20269;-70
2022/04/12 00:56:33;;;;;;;;;;;;;;;;;;5076042;28;19919;-70
2022/04/12 00:58:59;;;;;;;;;;;;;;;;;;5093346;28;20253;-71
2022/04/12 01:01:25;;;;;;;;;;;;;;;;;;5093976;28;19915;-71
2022/04/12 01:03:51;;;;;;;;;;;;;;;;;;5093695;28;19915;-71
2022/04/12 01:06:18;;;;;;;;;;;;;;;;;;5094310;28;19915;-70
2022/04/12 01:08:44;;;;;;;;;;;;;;;;;;5093958;28;19916;-70
2022/04/12 01:11:10;;;;;;;;;;;;;;;;;;5093948;28;19908;-70
2022/04/12 01:13:36;;;;;;;;;;;;;;;;;;5093928;28;20283;-70
2022/04/12 01:16:03;;;;;;;;;;;;;;;;;;5093957;28;19908;-70
2022/04/12 01:18:29;;;;;;;;;;;;;;;;;;5093526;28;20019;-71
2022/04/12 01:20:54;;;;;;;;;;;;;;;;;;5097159;28;20036;-70
2022/04/12 01:23:20;;;;;;;;;;;;;;;;;;5097814;28;20368;-70
2022/04/12 01:25:46;;;;;;;;;;;;;;;;;;5097435;28;19962;-70
2022/04/12 01:28:12;;;;;;;;;;;;;;;;;;5097882;28;20399;-70
2022/04/12 01:30:38;;;;;;;;;;;;;;;;;;5097721;28;19908;-70
2022/04/12 01:33:04;;;;;;;;;;;;;;;;;;5097614;28;19998;-70
2022/04/12 01:35:30;;;;;;;;;;;;;;;;;;5097891;28;19909;-70
2022/04/12 01:37:56;;;;;;;;;;;;;;;;;;5097826;28;20356;-70
2022/04/12 01:40:22;;;;;;;;;;;;;;;;;;5097336;28;20465;-70
2022/04/12 01:42:50;;;;;;;;;;;;;;;;;;5097678;28;19916;-70
2022/04/12 01:45:16;;;;;;;;;;;;;;;;;;5097422;28;19908;-70
2022/04/12 01:47:42;;;;;;;;;;;;;;;;;;5097252;28;20291;-70
2022/04/12 01:50:08;;;;;;;;;;;;;;;;;;5097928;28;19912;-70
2022/04/12 01:52:34;;;;;;;;;;;;;;;;;;5097386;28;19919;-70
2022/04/12 01:55:02;;;;;;;;;;;;;;;;;;5096960;28;19999;-70
2022/04/12 01:57:28;;;;;;;;;;;;;;;;;;5097057;28;19966;-70
2022/04/12 01:59:54;;;;;;;;;;;;;;;;;;5097654;28;19912;-70
2022/04/12 02:02:20;;;;;;;;;;;;;;;;;;5096822;28;19912;-70
2022/04/12 02:04:46;;;;;;;;;;;;;;;;;;5097305;28;19913;-71
2022/04/12 02:07:12;;;;;;;;;;;;;;;;;;5096943;28;19915;-70
2022/04/12 02:09:38;;;;;;;;;;;;;;;;;;5097298;28;19916;-70
2022/04/12 02:12:04;;;;;;;;;;;;;;;;;;5078795;28;19918;-70
2022/04/12 02:14:30;;;;;;;;;;;;;;;;;;5096498;28;20302;-69
2022/04/12 02:16:56;;;;;;;;;;;;;;;;;;5097531;28;20344;-69
2022/04/12 02:19:22;;;;;;;;;;;;;;;;;;5096677;28;19922;-70
2022/04/12 02:21:48;;;;;;;;;;;;;;;;;;5096402;28;19908;-70
2022/04/12 02:24:14;;;;;;;;;;;;;;;;;;5096699;28;19912;-70
2022/04/12 02:26:40;;;;;;;;;;;;;;;;;;5096641;28;19908;-70
2022/04/12 02:29:07;;;;;;;;;;;;;;;;;;5096223;28;19912;-69
2022/04/12 02:31:33;;;;;;;;;;;;;;;;;;5096180;28;19923;-69
2022/04/12 02:33:59;;;;;;;;;;;;;;;;;;5096553;28;19912;-69
2022/04/12 02:36:25;;;;;;;;;;;;;;;;;;5077925;28;19961;-70
2022/04/12 02:38:51;;;;;;;;;;;;;;;;;;5096383;28;20309;-70
2022/04/12 02:41:17;;;;;;;;;;;;;;;;;;5078318;28;19960;-70
2022/04/12 02:43:43;;;;;;;;;;;;;;;;;;5095976;28;20307;-69
2022/04/12 02:46:09;;;;;;;;;;;;;;;;;;5096425;28;19908;-70
2022/04/12 02:48:35;;;;;;;;;;;;;;;;;;5096294;28;19939;-70
2022/04/12 02:51:01;;;;;;;;;;;;;;;;;;5095872;28;19908;-70
2022/04/12 02:53:27;;;;;;;;;;;;;;;;;;5096133;28;20335;-70
2022/04/12 02:55:53;;;;;;;;;;;;;;;;;;5096739;28;19912;-70
2022/04/12 02:58:19;;;;;;;;;;;;;;;;;;5095430;28;20284;-70
2022/04/12 03:00:45;;;;;;;;;;;;;;;;;;5096092;28;19908;-70
2022/04/12 03:03:11;;;;;;;;;;;;;;;;;;5096247;28;19912;-70
2022/04/12 03:05:37;;;;;;;;;;;;;;;;;;5095656;28;19916;-71
2022/04/12 03:08:04;;;;;;;;;;;;;;;;;;5095897;28;19912;-70
2022/04/12 03:10:30;;;;;;;;;;;;;;;;;;5095522;28;20415;-70
2022/04/12 03:12:57;;;;;;;;;;;;;;;;;;5095788;28;19908;-70
2022/04/12 03:15:23;;;;;;;;;;;;;;;;;;5095932;28;20081;-70
2022/04/12 03:17:49;;;;;;;;;;;;;;;;;;5095628;28;19970;-70
2022/04/12 03:20:15;;;;;;;;;;;;;;;;;;5095671;28;19912;-70
2022/04/12 03:22:42;;;;;;;;;;;;;;;;;;5095587;28;19915;-70
2022/04/12 03:25:08;;;;;;;;;;;;;;;;;;5095147;28;19908;-70
2022/04/12 03:27:35;;;;;;;;;;;;;;;;;;5095794;28;20427;-70
2022/04/12 03:30:01;;;;;;;;;;;;;;;;;;5095457;28;19915;-71
2022/04/12 03:32:27;;;;;;;;;;;;;;;;;;5095062;28;19908;-70
2022/04/12 03:34:53;;;;;;;;;;;;;;;;;;5095351;28;20439;-70
2022/04/12 03:37:19;;;;;;;;;;;;;;;;;;5095458;28;19916;-71
2022/04/12 03:39:45;;;;;;;;;;;;;;;;;;5094811;28;20279;-70
2022/04/12 03:42:12;;;;;;;;;;;;;;;;;;5094863;28;19908;-71
2022/04/12 03:44:38;;;;;;;;;;;;;;;;;;5095193;28;19991;-71
2022/04/12 03:47:04;;;;;;;;;;;;;;;;;;5094876;28;19959;-71
2022/04/12 03:49:30;;;;;;;;;;;;;;;;;;5095230;28;19954;-71
2022/04/12 03:51:56;;;;;;;;;;;;;;;;;;5095141;28;19908;-71
2022/04/12 03:54:22;;;;;;;;;;;;;;;;;;5094684;28;19908;-71
2022/04/12 03:56:48;;;;;;;;;;;;;;;;;;5095227;28;19908;-70
2022/04/12 03:59:14;;;;;;;;;;;;;;;;;;5094773;28;20356;-71
2022/04/12 04:01:40;;;;;;;;;;;;;;;;;;5094438;28;19908;-73
2022/04/12 04:04:06;;;;;;;;;;;;;;;;;;5095069;28;20428;-74
2022/04/12 04:06:32;;;;;;;;;;;;;;;;;;5076532;28;19943;-75
2022/04/12 04:08:58;;;;;;;;;;;;;;;;;;5076299;28;19993;-75
2022/04/12 04:11:27;;;;;;;;;;;;;;;;;;5076779;28;20364;-76
2022/04/12 04:13:53;;;;;;;;;;;;;;;;;;5094264;28;20386;-76
2022/04/12 04:16:19;;;;;;;;;;;;;;;;;;5094558;28;19940;-76
2022/04/12 04:18:45;;;;;;;;;;;;;;;;;;5094512;28;19922;-75
2022/04/12 04:21:11;;;;;;;;;;;;;;;;;;5094076;28;20352;-76
2022/04/12 04:23:37;;;;;;;;;;;;;;;;;;5094518;28;19908;-76
2022/04/12 04:26:03;;;;;;;;;;;;;;;;;;5094365;28;20348;-76
2022/04/12 04:28:30;;;;;;;;;;;;;;;;;;5094009;28;20028;-75
2022/04/12 04:30:56;;;;;;;;;;;;;;;;;;5094429;28;19908;-76
2022/04/12 04:33:22;;;;;;;;;;;;;;;;;;5094331;28;20331;-75
2022/04/12 04:35:48;;;;;;;;;;;;;;;;;;5094236;28;19908;-75
2022/04/12 04:38:14;;;;;;;;;;;;;;;;;;5094276;28;20280;-76
2022/04/12 04:40:40;;;;;;;;;;;;;;;;;;5094241;28;19908;-76
2022/04/12 04:43:06;;;;;;;;;;;;;;;;;;5093787;28;19962;-76
2022/04/12 04:45:32;;;;;;;;;;;;;;;;;;5094180;28;20372;-75
2022/04/12 04:47:58;;;;;;;;;;;;;;;;;;5094099;28;19909;-76
2022/04/12 04:50:24;;;;;;;;;;;;;;;;;;5093897;28;19912;-74
2022/04/12 04:52:50;;;;;;;;;;;;;;;;;;5094173;28;19909;-74
2022/04/12 04:55:16;;;;;;;;;;;;;;;;;;5094052;28;19908;-75
2022/04/12 04:57:42;;;;;;;;;;;;;;;;;;5093706;28;19947;-75
2022/04/12 05:00:08;;;;;;;;;;;;;;;;;;5094514;28;19915;-76
2022/04/12 05:02:34;;;;;;;;;;;;;;;;;;5094288;28;19908;-75
2022/04/12 05:05:00;;;;;;;;;;;;;;;;;;5093582;28;19952;-75
2022/04/12 05:07:26;;;;;;;;;;;;;;;;;;5091217;28;19912;-74
2022/04/12 05:09:52;;;;;;;;;;;;;;;;;;5089394;28;19918;-73
2022/04/12 05:12:18;;;;;;;;;;;;;;;;;;5092350;28;20325;-73
2022/04/12 05:14:44;;;;;;;;;;;;;;;;;;5093181;28;19912;-75
2022/04/12 05:17:10;;;;;;;;;;;;;;;;;;5093043;28;19961;-74
2022/04/12 05:19:36;;;;;;;;;;;;;;;;;;5093083;28;19931;-73
2022/04/12 05:22:02;;;;;;;;;;;;;;;;;;5089879;28;19913;-72
2022/04/12 05:24:28;;;;;;;;;;;;;;;;;;5083368;28;19912;-72
2022/04/12 05:26:54;;;;;;;;;;;;;;;;;;5091890;28;19973;-75
2022/04/12 05:29:20;;;;;;;;;;;;;;;;;;5073073;28;20443;-74
2022/04/12 05:31:46;;;;;;;;;;;;;;;;;;5090747;28;19915;-72
2022/04/12 05:34:12;;;;;;;;;;;;;;;;;;5074245;28;20265;-73
2022/04/12 05:36:38;;;;;;;;;;;;;;;;;;5091121;28;19919;-72
2022/04/12 05:39:04;;;;;;;;;;;;;;;;;;5084319;28;20288;-73
2022/04/12 05:41:30;;;;;;;;;;;;;;;;;;5085255;28;20541;-72
2022/04/12 05:43:56;;;;;;;;;;;;;;;;;;5092136;28;20352;-73
2022/04/12 05:46:22;;;;;;;;;;;;;;;;;;5092080;28;19908;-71
2022/04/12 05:48:50;;;;;;;;;;;;;;;;;;5092392;28;19908;-71
2022/04/12 05:51:18;;;;;;;;;;;;;;;;;;5087825;28;19941;-72
2022/04/12 05:53:45;;;;;;;;;;;;;;;;;;5091597;28;19908;-72
2022/04/12 05:56:13;;;;;;;;;;;;;;;;;;5089878;28;19909;-72
2022/04/12 05:58:40;;;;;;;;;;;;;;;;;;5068307;28;19929;-71
2022/04/12 06:01:07;;;;;;;;;;;;;;;;;;5070240;28;19908;-73
2022/04/12 06:03:33;;;;;;;;;;;;;;;;;;5067550;28;19908;-74
2022/04/12 06:05:59;;;;;;;;;;;;;;;;;;5072809;28;19908;-72
2022/04/12 06:08:25;;;;;;;;;;;;;;;;;;5073425;28;19909;-71
2022/04/12 06:10:52;;;;;;;;;;;;;;;;;;5074315;28;19944;-75
2022/04/12 06:13:18;;;;;;;;;;;;;;;;;;5074723;28;19923;-74
2022/04/12 06:15:44;;;;;;;;;;;;;;;;;;5074699;28;19919;-73
2022/04/12 06:18:10;;;;;;;;;;;;;;;;;;5075563;28;19919;-74
2022/04/12 06:20:36;;;;;;;;;;;;;;;;;;5075025;28;19916;-73
2022/04/12 06:23:03;;;;;;;;;;;;;;;;;;5075361;28;19974;-73
2022/04/12 06:25:30;;;;;;;;;;;;;;;;;;5074142;28;20003;-74
2022/04/12 06:27:56;;;;;;;;;;;;;;;;;;5073775;28;19915;-72
2022/04/12 06:30:22;;;;;;;;;;;;;;;;;;5071621;28;19916;-72
2022/04/12 06:32:49;;;;;;;;;;;;;;;;;;5075618;28;20285;-74
2022/04/12 06:35:16;;;;;;;;;;;;;;;;;;5073914;28;19931;-78
2022/04/12 06:37:42;;;;;;;;;;;;;;;;;;5075359;28;19934;-79
2022/04/12 06:40:08;;;;;;;;;;;;;;;;;;5075295;28;19917;-75
2022/04/12 06:42:35;;;;;;;;;;;;;;;;;;5074997;28;19908;-74
2022/04/12 06:45:02;;;;;;;;;;;;;;;;;;5074663;28;19969;-75
2022/04/12 06:47:28;;;;;;;;;;;;;;;;;;5073787;28;19951;-73
2022/04/12 06:49:55;;;;;;;;;;;;;;;;;;5074930;28;19916;-73
2022/04/12 06:52:22;;;;;;;;;;;;;;;;;;5068378;28;20277;-76
2022/04/12 06:54:49;;;;;;;;;;;;;;;;;;5075034;28;19908;-74
2022/04/12 06:57:15;;;;;;;;;;;;;;;;;;5075546;28;19943;-80
2022/04/12 06:59:41;;;;;;;;;;;;;;;;;;5094304;28;19920;-72
2022/04/12 07:02:07;;;;;;;;;;;;;;;;;;5092045;28;19973;-73
2022/04/12 07:04:33;;;;;;;;;;;;;;;;;;5094059;28;20368;-73
2022/04/12 07:06:58;;;;;;;;;;;;;;;;;;5094594;28;20002;-73
2022/04/12 07:09:27;;;;;;;;;;;;;;;;;;5080630;28;20007;-75
2022/04/12 07:11:53;;;;;;;;;;;;;;;;;;5088981;28;20386;-78
2022/04/12 07:14:19;;;;;;;;;;;;;;;;;;5094164;28;19912;-76
2022/04/12 07:16:45;;;;;;;;;;;;;;;;;;5094086;28;19919;-78
2022/04/12 07:19:11;;;;;;;;;;;;;;;;;;5076993;28;20326;-74
2022/04/12 07:21:37;;;;;;;;;;;;;;;;;;5094031;28;19916;-75
2022/04/12 07:24:03;;;;;;;;;;;;;;;;;;5092078;28;20033;-75
2022/04/12 07:26:29;;;;;;;;;;;;;;;;;;5094356;28;19979;-73
2022/04/12 07:28:55;;;;;;;;;;;;;;;;;;5094813;28;19934;-73
2022/04/12 07:31:21;;;;;;;;;;;;;;;;;;5088035;28;19913;-75
2022/04/12 07:33:48;;;;;;;;;;;;;;;;;;5076410;28;20045;-72
2022/04/12 07:36:14;;;;;;;;;;;;;;;;;;5070063;28;20011;-73
2022/04/12 07:38:40;;;;;;;;;;;;;;;;;;5093948;28;20384;-75
2022/04/12 07:41:06;;;;;;;;;;;;;;;;;;5093117;28;20276;-75
2022/04/12 07:43:34;;;;;;;;;;;;;;;;;;5094434;28;19916;-76
2022/04/12 07:46:00;;;;;;;;;;;;;;;;;;5092966;28;19908;-75
2022/04/12 07:48:26;;;;;;;;;;;;;;;;;;5090140;28;19912;-72
2022/04/12 07:50:52;;;;;;;;;;;;;;;;;;5065737;28;20003;-75
2022/04/12 07:53:18;;;;;;;;;;;;;;;;;;5078439;28;19919;-76
2022/04/12 07:55:44;;;;;;;;;;;;;;;;;;5093331;28;20271;-78
2022/04/12 07:58:10;;;;;;;;;;;;;;;;;;5094168;28;19931;-81
2022/04/12 08:00:36;;;;;;;;;;;;;;;;;;5083689;28;19913;-78
2022/04/12 08:03:02;;;;;;;;;;;;;;;;;;5081529;28;19916;-77
2022/04/12 08:05:28;;;;;;;;;;;;;;;;;;5073838;28;19909;-84
2022/04/12 08:07:54;;;;;;;;;;;;;;;;;;5085136;28;19962;-81
2022/04/12 08:10:20;;;;;;;;;;;;;;;;;;5093397;28;20422;-75
2022/04/12 08:12:46;;;;;;;;;;;;;;;;;;5071600;28;19909;-73
2022/04/12 08:15:12;;;;;;;;;;;;;;;;;;5064332;28;19927;-73
2022/04/12 08:17:38;;;;;;;;;;;;;;;;;;5092766;28;19908;-74
2022/04/12 08:20:05;;;;;;;;;;;;;;;;;;5092260;28;20368;-73
2022/04/12 08:22:31;;;;;;;;;;;;;;;;;;5091866;28;19915;-73
2022/04/12 08:24:58;;;;;;;;;;;;;;;;;;5092482;28;20361;-84
2022/04/12 08:27:24;;;;;;;;;;;;;;;;;;5079292;28;19919;-83
2022/04/12 08:29:50;;;;;;;;;;;;;;;;;;5075233;28;19908;-76
2022/04/12 08:32:17;;;;;;;;;;;;;;;;;;5088949;28;19912;-76
2022/04/12 08:34:43;;;;;;;;;;;;;;;;;;5092317;28;19908;-75
2022/04/12 08:37:09;;;;;;;;;;;;;;;;;;5094060;28;19909;-75
2022/04/12 08:39:35;;;;;;;;;;;;;;;;;;5086802;28;20019;-75
2022/04/12 08:42:01;;;;;;;;;;;;;;;;;;5074625;28;19908;-73
2022/04/12 08:44:27;;;;;;;;;;;;;;;;;;5091536;28;20415;-74
2022/04/12 08:46:53;;;;;;;;;;;;;;;;;;5091662;28;19959;-77
2022/04/12 08:51:04;;;;;;;;;;;;;;;;;;5087990;27;20419;-76
2022/04/12 08:58:51;;;;;;;;;;;;;;;;;;5089243;27;19916;-72
2022/04/12 09:01:17;;;;;;;;;;;;;;;;;;5088973;28;19913;-73
2022/04/12 09:05:45;;;;;;;;;;;;;;;;;;5089342;28;19926;-71
2022/04/12 09:08:36;;;;;;;;;;;;;;;;;;5109828;27;19916;-73
2022/04/12 09:11:02;;;;;;;;;;;;;;;;;;5109828;28;19943;-72
2022/04/12 09:15:22;;;;;;;;;;;;;;;;;;5068504;28;20407;-75
2022/04/12 09:19:43;;;;;;;;;;;;;;;;;;5090924;27;19924;-77
2022/04/12 09:22:09;;;;;;;;;;;;;;;;;;5090342;28;20041;-71
2022/04/12 09:24:35;;;;;;;;;;;;;;;;;;5088858;28;19986;-75
2022/04/12 09:27:01;;;;;;;;;;;;;;;;;;5090412;28;19916;-78
2022/04/12 09:35:24;;;;;;;;;;;;;;;;;;5109603;27;20299;-76
2022/04/12 09:43:05;;;;;;;;;;;;;;;;;;5172903;27;20453;-75
2022/04/12 09:46:37;;;;;;;;;;;;;;;;;;5090244;27;19920;-74
2022/04/12 09:51:02;;;;;;;;;;;;;;;;;;5070663;28;19921;-74
2022/04/12 09:53:28;;;;;;;;;;;;;;;;;;5069095;28;20354;-79
2022/04/12 09:58:06;;;;;;;;;;;;;;;;;;5088568;27;19923;-77
2022/04/12 10:04:18;;;;;;;;;;;;;;;;;;5151386;27;20454;-74
2022/04/12 10:09:17;;;;;;;;;;;;;;;;;;5090801;28;19939;-74
2022/04/12 10:11:43;;;;;;;;;;;;;;;;;;5091198;28;19919;-74
2022/04/12 10:14:09;;;;;;;;;;;;;;;;;;5089366;28;19913;-79
2022/04/12 10:16:35;;;;;;;;;;;;;;;;;;5089632;28;19941;-74
2022/04/12 10:21:19;;;;;;;;;;;;;;;;;;5070617;28;19923;-75
2022/04/12 10:26:21;;;;;;;;;;;;;;;;;;5091064;28;19913;-77
2022/04/12 10:29:18;;;;;;;;;;;;;;;;;;5091027;27;19918;-75
2022/04/12 10:33:34;;;;;;;;;;;;;;;;;;5090604;28;19922;-75
2022/04/12 10:36:02;;;;;;;;;;;;;;;;;;5090981;28;19974;-77
2022/04/12 10:38:28;;;;;;;;;;;;;;;;;;5091190;28;20261;-77
2022/04/12 10:40:54;;;;;;;;;;;;;;;;;;5090402;28;19915;-75
2022/04/12 10:43:20;;;;;;;;;;;;;;;;;;5091018;28;19908;-76
2022/04/12 10:45:46;;;;;;;;;;;;;;;;;;5090965;28;19915;-75
2022/04/12 10:50:20;;;;;;;;;;;;;;;;;;5152857;27;19918;-75
2022/04/12 10:54:10;;;;;;;;;;;;;;;;;;5090506;27;20376;-74
2022/04/12 10:56:36;;;;;;;;;;;;;;;;;;5090609;28;19947;-75
2022/04/12 10:59:02;;;;;;;;;;;;;;;;;;5090909;28;20249;-75
2022/04/12 11:03:33;;;;;;;;;;;;;;;;;;5090318;27;20284;-75
2022/04/12 11:05:59;;;;;;;;;;;;;;;;;;5091082;28;19995;-77
2022/04/12 11:08:25;;;;;;;;;;;;;;;;;;5091017;28;19943;-77
2022/04/12 11:10:52;;;;;;;;;;;;;;;;;;5089150;28;20287;-76
2022/04/12 11:13:18;;;;;;;;;;;;;;;;;;5090769;28;20265;-76
2022/04/12 11:15:44;;;;;;;;;;;;;;;;;;5091025;28;19916;-74
2022/04/12 11:18:10;;;;;;;;;;;;;;;;;;5090599;28;20369;-75
2022/04/12 11:20:36;;;;;;;;;;;;;;;;;;5091492;28;20282;-74
2022/04/12 11:23:02;;;;;;;;;;;;;;;;;;5090422;28;20368;-75
2022/04/12 11:25:28;;;;;;;;;;;;;;;;;;5091158;28;19908;-74
2022/04/12 11:27:54;;;;;;;;;;;;;;;;;;5090909;28;19908;-75
2022/04/12 11:30:20;;;;;;;;;;;;;;;;;;5090205;28;20408;-76
2022/04/12 11:32:46;;;;;;;;;;;;;;;;;;5090686;28;19908;-74
2022/04/12 11:35:12;;;;;;;;;;;;;;;;;;5089346;28;20446;-74
2022/04/12 11:37:38;;;;;;;;;;;;;;;;;;5090177;28;20000;-74
2022/04/12 11:40:04;;;;;;;;;;;;;;;;;;5090228;28;19908;-76
2022/04/12 11:42:30;;;;;;;;;;;;;;;;;;5090640;28;19923;-75
2022/04/12 11:44:57;;;;;;;;;;;;;;;;;;5090148;28;19909;-75
2022/04/12 11:47:23;;;;;;;;;;;;;;;;;;5089237;28;20249;-75
2022/04/12 11:49:49;;;;;;;;;;;;;;;;;;5090794;28;19915;-75
2022/04/12 11:52:15;;;;;;;;;;;;;;;;;;5088578;28;19912;-74
2022/04/12 11:54:41;;;;;;;;;;;;;;;;;;5088970;28;19935;-74
2022/04/12 11:57:07;;;;;;;;;;;;;;;;;;5091159;28;19934;-75
2022/04/12 11:59:33;;;;;;;;;;;;;;;;;;5089907;28;19908;-77
2022/04/12 12:02:02;;;;;;;;;;;;;;;;;;5097325;28;19924;-75
2022/04/12 12:04:29;;;;;;;;;;;;;;;;;;5110306;28;19922;-75
2022/04/12 12:06:55;;;;;;;;;;;;;;;;;;5109871;28;19908;-74
2022/04/12 12:09:21;;;;;;;;;;;;;;;;;;5092110;28;20380;-74
2022/04/12 12:11:48;;;;;;;;;;;;;;;;;;5110317;28;19908;-76
2022/04/12 12:14:50;;;;;;;;;;;;;;;;;;5090994;28;19923;-73
2022/04/12 12:17:18;;;;;;;;;;;;;;;;;;5090121;28;20010;-73
2022/04/12 12:19:44;;;;;;;;;;;;;;;;;;5090882;28;19954;-72
2022/04/12 12:22:10;;;;;;;;;;;;;;;;;;5091298;28;19908;-72
2022/04/12 12:24:37;;;;;;;;;;;;;;;;;;5091880;28;20264;-72
2022/04/12 12:28:39;;;;;;;;;;;;;;;;;;5111895;27;19912;-72
2022/04/12 12:31:07;;;;;;;;;;;;;;;;;;5112210;28;19957;-72
2022/04/12 12:35:58;;;;;;;;;;;;;;;;;;5091598;27;19916;-73
2022/04/12 12:38:27;;;;;;;;;;;;;;;;;;5091463;28;19944;-72
2022/04/12 12:40:53;;;;;;;;;;;;;;;;;;5091156;28;20326;-73
2022/04/12 12:43:56;;;;;;;;;;;;;;;;;;5091969;28;19922;-72
2022/04/12 12:46:22;;;;;;;;;;;;;;;;;;5091224;28;19918;-73
2022/04/12 12:48:48;;;;;;;;;;;;;;;;;;5090941;28;20334;-73
2022/04/12 12:51:14;;;;;;;;;;;;;;;;;;5091294;28;19909;-73
2022/04/12 12:53:40;;;;;;;;;;;;;;;;;;5091289;28;19909;-73
2022/04/12 12:56:06;;;;;;;;;;;;;;;;;;5090723;28;19912;-74
2022/04/12 12:58:32;;;;;;;;;;;;;;;;;;5091600;28;19915;-73
2022/04/12 13:00:58;;;;;;;;;;;;;;;;;;5089810;28;19908;-73
2022/04/12 13:03:24;;;;;;;;;;;;;;;;;;5090641;28;19924;-74
2022/04/12 13:05:50;;;;;;;;;;;;;;;;;;5089842;28;19977;-72
2022/04/12 13:08:18;;;;;;;;;;;;;;;;;;5090859;28;19912;-72
2022/04/12 13:10:44;;;;;;;;;;;;;;;;;;5091433;28;19920;-72
2022/04/12 13:13:10;;;;;;;;;;;;;;;;;;5090958;28;19908;-72
2022/04/12 13:15:36;;;;;;;;;;;;;;;;;;5090943;28;19920;-73
2022/04/12 13:18:02;;;;;;;;;;;;;;;;;;5090852;28;20017;-73
2022/04/12 13:20:28;;;;;;;;;;;;;;;;;;5090837;28;19916;-73
2022/04/12 13:22:54;;;;;;;;;;;;;;;;;;5089055;28;19920;-71
2022/04/12 13:25:20;;;;;;;;;;;;;;;;;;5090708;28;20298;-73
2022/04/12 13:27:46;;;;;;;;;;;;;;;;;;5091275;28;20455;-74
2022/04/12 13:30:12;;;;;;;;;;;;;;;;;;5090139;28;19909;-71
2022/04/12 13:32:38;;;;;;;;;;;;;;;;;;5090503;28;19915;-72
2022/04/12 13:35:04;;;;;;;;;;;;;;;;;;5089016;28;19908;-73
2022/04/12 13:37:30;;;;;;;;;;;;;;;;;;5090132;28;19914;-74
2022/04/12 13:39:56;;;;;;;;;;;;;;;;;;5090464;28;19926;-73
2022/04/12 13:42:22;;;;;;;;;;;;;;;;;;5097629;28;19924;-73
2022/04/12 13:44:49;;;;;;;;;;;;;;;;;;5091739;28;19951;-73
2022/04/12 13:47:17;;;;;;;;;;;;;;;;;;5110702;28;19915;-73
2022/04/12 13:49:43;;;;;;;;;;;;;;;;;;5110849;28;19967;-73
2022/04/12 13:52:09;;;;;;;;;;;;;;;;;;5110153;28;19908;-73
2022/04/12 13:54:35;;;;;;;;;;;;;;;;;;5100734;28;20098;-73
2022/04/12 13:57:01;;;;;;;;;;;;;;;;;;5096847;28;19999;-73
2022/04/12 13:59:27;;;;;;;;;;;;;;;;;;5096482;28;19942;-73
2022/04/12 14:01:53;;;;;;;;;;;;;;;;;;5097110;28;19916;-73
2022/04/12 14:04:19;;;;;;;;;;;;;;;;;;5096765;28;19918;-72
2022/04/12 14:06:45;;;;;;;;;;;;;;;;;;5096303;28;20410;-72
2022/04/12 14:09:11;;;;;;;;;;;;;;;;;;5096592;28;19908;-73
2022/04/12 14:11:37;;;;;;;;;;;;;;;;;;5096147;28;20371;-73
2022/04/12 14:14:03;;;;;;;;;;;;;;;;;;5096485;28;19908;-72
2022/04/12 14:16:29;;;;;;;;;;;;;;;;;;5096479;28;19916;-72
2022/04/12 14:18:55;;;;;;;;;;;;;;;;;;5096311;28;19908;-71
2022/04/12 14:21:21;;;;;;;;;;;;;;;;;;5096409;28;19951;-72
2022/04/12 14:23:47;;;;;;;;;;;;;;;;;;5096194;28;19963;-73
2022/04/12 14:26:13;;;;;;;;;;;;;;;;;;5096206;28;19908;-72
2022/04/12 14:28:39;;;;;;;;;;;;;;;;;;5096223;28;19908;-72
2022/04/12 14:31:05;;;;;;;;;;;;;;;;;;5096512;28;19915;-72
2022/04/12 14:33:31;;;;;;;;;;;;;;;;;;5095668;28;19908;-72
2022/04/12 14:35:57;;;;;;;;;;;;;;;;;;5096115;28;20334;-73
2022/04/12 14:38:23;;;;;;;;;;;;;;;;;;5096049;28;19915;-73
2022/04/12 14:40:52;;;;;;;;;;;;;;;;;;5077526;28;19936;-72
2022/04/12 14:43:18;;;;;;;;;;;;;;;;;;5095681;28;19920;-74
2022/04/12 14:45:44;;;;;;;;;;;;;;;;;;5095965;28;19953;-73
2022/04/12 14:48:10;;;;;;;;;;;;;;;;;;5095457;28;19908;-73
2022/04/12 14:50:36;;;;;;;;;;;;;;;;;;5077522;28;20333;-73
2022/04/12 14:53:02;;;;;;;;;;;;;;;;;;5096093;28;19908;-72
2022/04/12 14:55:28;;;;;;;;;;;;;;;;;;5095260;28;19915;-72
2022/04/12 14:57:54;;;;;;;;;;;;;;;;;;5096213;28;19908;-72
2022/04/12 15:00:20;;;;;;;;;;;;;;;;;;5095628;28;19916;-73
2022/04/12 15:02:46;;;;;;;;;;;;;;;;;;5095192;28;19924;-73
2022/04/12 15:05:12;;;;;;;;;;;;;;;;;;5094799;28;19908;-73
2022/04/12 15:07:38;;;;;;;;;;;;;;;;;;5095769;28;19962;-73
2022/04/12 15:10:04;;;;;;;;;;;;;;;;;;5095058;28;20372;-73
2022/04/12 15:12:30;;;;;;;;;;;;;;;;;;5095460;28;19915;-73
2022/04/12 15:14:56;;;;;;;;;;;;;;;;;;5095445;28;19912;-73
2022/04/12 15:17:24;;;;;;;;;;;;;;;;;;5095260;28;20249;-72
2022/04/12 15:19:50;;;;;;;;;;;;;;;;;;5077065;28;19908;-72
2022/04/12 15:22:16;;;;;;;;;;;;;;;;;;5095319;28;19920;-72
2022/04/12 15:24:42;;;;;;;;;;;;;;;;;;5095320;28;20372;-72
2022/04/12 15:27:08;;;;;;;;;;;;;;;;;;5095529;28;19915;-72
2022/04/12 15:29:34;;;;;;;;;;;;;;;;;;5094669;28;20316;-72
2022/04/12 15:32:00;;;;;;;;;;;;;;;;;;5094958;28;19944;-73
2022/04/12 15:34:26;;;;;;;;;;;;;;;;;;5076856;28;19995;-73
2022/04/12 15:36:52;;;;;;;;;;;;;;;;;;5094589;28;19912;-72
2022/04/12 15:39:19;;;;;;;;;;;;;;;;;;5094922;28;19931;-72
2022/04/12 15:41:45;;;;;;;;;;;;;;;;;;5094529;28;19908;-72
2022/04/12 15:44:12;;;;;;;;;;;;;;;;;;5094432;28;20202;-73
2022/04/12 15:46:38;;;;;;;;;;;;;;;;;;5094682;28;19934;-72
2022/04/12 15:49:04;;;;;;;;;;;;;;;;;;5095302;28;19908;-72
2022/04/12 15:51:30;;;;;;;;;;;;;;;;;;5094147;28;20284;-72
2022/04/12 15:53:56;;;;;;;;;;;;;;;;;;5094491;28;19912;-71
2022/04/12 15:56:25;;;;;;;;;;;;;;;;;;5094753;28;19908;-72
2022/04/12 15:58:52;;;;;;;;;;;;;;;;;;5094187;28;19991;-73
2022/04/12 16:01:18;;;;;;;;;;;;;;;;;;5094675;28;20379;-72
2022/04/12 16:03:44;;;;;;;;;;;;;;;;;;5094972;28;19916;-73
2022/04/12 16:06:10;;;;;;;;;;;;;;;;;;5093908;28;19909;-73
2022/04/12 16:08:36;;;;;;;;;;;;;;;;;;5094520;28;19935;-73
2022/04/12 16:11:08;;;;;;;;;;;;;;;;;;5094751;28;20352;-73
2022/04/12 16:13:34;;;;;;;;;;;;;;;;;;5093833;28;19947;-74
2022/04/12 16:16:00;;;;;;;;;;;;;;;;;;5094138;28;19954;-73
2022/04/12 16:18:26;;;;;;;;;;;;;;;;;;5093510;28;19912;-72
2022/04/12 16:20:52;;;;;;;;;;;;;;;;;;5094430;28;20288;-71
2022/04/12 16:23:18;;;;;;;;;;;;;;;;;;5094297;28;19916;-72
2022/04/12 16:25:46;;;;;;;;;;;;;;;;;;5093657;28;19961;-73
2022/04/12 16:28:14;;;;;;;;;;;;;;;;;;5094203;28;19908;-73
2022/04/12 16:30:40;;;;;;;;;;;;;;;;;;5093912;28;19908;-73
2022/04/12 16:33:06;;;;;;;;;;;;;;;;;;5093538;28;19999;-73
2022/04/12 16:35:32;;;;;;;;;;;;;;;;;;5093904;28;19953;-75
2022/04/12 16:37:58;;;;;;;;;;;;;;;;;;5075631;28;20006;-73
2022/04/12 16:40:24;;;;;;;;;;;;;;;;;;5093466;28;20326;-73
2022/04/12 16:42:50;;;;;;;;;;;;;;;;;;5075536;28;19925;-73
2022/04/12 16:45:16;;;;;;;;;;;;;;;;;;5093956;28;19912;-73
2022/04/12 16:47:42;;;;;;;;;;;;;;;;;;5074961;28;19912;-73
2022/04/12 16:50:08;;;;;;;;;;;;;;;;;;5075633;28;19969;-73
2022/04/12 16:54:20;;;;;;;;;;;;;;;;;;5090803;27;19912;-73
2022/04/12 16:56:46;;;;;;;;;;;;;;;;;;5089898;28;19958;-72
2022/04/12 16:59:12;;;;;;;;;;;;;;;;;;5091312;28;20441;-72
2022/04/12 17:01:38;;;;;;;;;;;;;;;;;;5091125;28;20265;-72
2022/04/12 17:06:01;;;;;;;;;;;;;;;;;;5111793;27;19916;-73
2022/04/12 17:08:27;;;;;;;;;;;;;;;;;;5111275;28;19934;-72
2022/04/12 17:10:54;;;;;;;;;;;;;;;;;;5111622;28;19908;-71
2022/04/12 17:15:38;;;;;;;;;;;;;;;;;;5091054;27;19917;-73
2022/04/12 17:18:04;;;;;;;;;;;;;;;;;;5090014;28;20332;-70
2022/04/12 17:20:31;;;;;;;;;;;;;;;;;;5089865;28;19958;-73
2022/04/12 17:23:00;;;;;;;;;;;;;;;;;;5090869;28;19912;-70
2022/04/12 17:25:26;;;;;;;;;;;;;;;;;;5091248;28;19944;-73
2022/04/12 17:27:52;;;;;;;;;;;;;;;;;;5091158;28;19936;-71
2022/04/12 17:30:18;;;;;;;;;;;;;;;;;;5089147;28;19915;-72
2022/04/12 17:32:44;;;;;;;;;;;;;;;;;;5090979;28;19995;-72
2022/04/12 17:35:10;;;;;;;;;;;;;;;;;;5090847;28;19916;-71
2022/04/12 17:37:36;;;;;;;;;;;;;;;;;;5090497;28;19933;-72
2022/04/12 17:40:02;;;;;;;;;;;;;;;;;;5089536;28;19978;-72